createdAt,value
2022-08-26T00:00:54.599Z,20.97
2022-08-26T00:03:24.345Z,20.93
2022-08-26T00:05:53.120Z,20.96
2022-08-26T00:08:22.378Z,20.97
2022-08-26T00:10:51.178Z,20.90
2022-08-26T00:13:21.370Z,20.81
2022-08-26T00:15:51.215Z,20.77
2022-08-26T00:18:22.387Z,20.76
2022-08-26T00:20:51.792Z,20.77
2022-08-26T00:23:20.722Z,20.78
2022-08-26T00:25:53.608Z,20.68
2022-08-26T00:28:24.074Z,20.67
2022-08-26T00:30:53.125Z,20.66
2022-08-26T00:33:22.143Z,20.66
2022-08-26T00:35:51.798Z,20.68
2022-08-26T00:38:22.960Z,20.58
2022-08-26T00:40:53.985Z,20.53
2022-08-26T00:43:26.426Z,20.57
2022-08-26T00:45:58.968Z,20.60
2022-08-26T00:48:30.740Z,20.57
2022-08-26T00:51:02.604Z,20.56
2022-08-26T00:53:35.964Z,20.54
2022-08-26T00:56:09.222Z,20.47
2022-08-26T00:58:45.415Z,20.41
2022-08-26T01:01:14.456Z,20.43
2022-08-26T01:03:44.966Z,20.44
2022-08-26T01:06:14.878Z,20.33
2022-08-26T01:08:43.835Z,20.29
2022-08-26T01:11:12.875Z,20.36
2022-08-26T01:13:43.477Z,20.30
2022-08-26T01:16:16.220Z,20.24
2022-08-26T01:18:46.746Z,20.22
2022-08-26T01:21:21.177Z,20.24
2022-08-26T01:23:57.536Z,20.21
2022-08-26T01:26:29.662Z,20.27
2022-08-26T01:29:00.299Z,20.25
2022-08-26T01:31:34.101Z,20.14
2022-08-26T01:34:06.684Z,20.20
2022-08-26T01:36:38.671Z,20.08
2022-08-26T01:39:09.721Z,20.10
2022-08-26T01:41:40.552Z,20.12
2022-08-26T01:44:21.119Z,20.12
2022-08-26T01:46:51.933Z,20.03
2022-08-26T01:49:22.077Z,20.00
2022-08-26T01:51:51.988Z,19.99
2022-08-26T01:54:23.159Z,19.91
2022-08-26T01:56:52.578Z,19.80
2022-08-26T01:59:21.975Z,19.69
2022-08-26T02:01:51.136Z,19.67
2022-08-26T02:04:24.739Z,19.79
2022-08-26T02:06:53.819Z,19.70
2022-08-26T02:09:24.974Z,19.71
2022-08-26T02:11:54.256Z,19.64
2022-08-26T02:14:26.903Z,19.66
2022-08-26T02:16:56.775Z,19.63
2022-08-26T02:19:28.922Z,19.66
2022-08-26T02:22:01.411Z,19.52
2022-08-26T02:24:47.234Z,19.63
2022-08-26T02:27:16.485Z,19.55
2022-08-26T02:29:48.182Z,19.55
2022-08-26T02:32:19.003Z,19.54
2022-08-26T02:34:48.149Z,19.55
2022-08-26T02:37:17.726Z,19.46
2022-08-26T02:39:47.992Z,19.45
2022-08-26T02:42:16.874Z,19.46
2022-08-26T02:44:45.684Z,19.44
2022-08-26T02:47:15.397Z,19.54
2022-08-26T02:49:44.969Z,19.45
2022-08-26T02:52:16.216Z,19.44
2022-08-26T02:54:45.035Z,19.48
2022-08-26T02:57:15.847Z,19.41
2022-08-26T02:59:45.143Z,19.32
2022-08-26T03:02:14.443Z,19.21
2022-08-26T03:04:57.937Z,19.12
2022-08-26T03:07:30.880Z,19.20
2022-08-26T03:09:59.838Z,19.29
2022-08-26T03:12:29.999Z,19.34
2022-08-26T03:14:58.753Z,19.28
2022-08-26T03:17:27.631Z,19.16
2022-08-26T03:19:57.210Z,19.12
2022-08-26T03:22:27.131Z,19.12
2022-08-26T03:24:55.941Z,19.19
2022-08-26T03:27:24.645Z,19.14
2022-08-26T03:30:12.191Z,19.13
2022-08-26T03:32:41.486Z,19.12
2022-08-26T03:35:10.598Z,19.14
2022-08-26T03:37:39.976Z,19.06
2022-08-26T03:40:11.110Z,19.08
2022-08-26T03:42:41.254Z,19.08
2022-08-26T03:45:16.837Z,18.89
2022-08-26T03:47:46.544Z,18.90
2022-08-26T03:50:22.934Z,18.89
2022-08-26T03:52:54.809Z,18.78
2022-08-26T03:55:25.747Z,18.74
2022-08-26T03:57:56.123Z,18.71
2022-08-26T04:00:26.582Z,18.76
2022-08-26T04:02:55.388Z,18.74
2022-08-26T04:05:24.790Z,18.74
2022-08-26T04:07:54.437Z,18.73
2022-08-26T04:10:28.675Z,18.77
2022-08-26T04:12:59.703Z,18.70
2022-08-26T04:15:30.072Z,18.56
2022-08-26T04:17:58.766Z,18.57
2022-08-26T04:20:28.474Z,18.57
2022-08-26T04:22:57.678Z,18.52
2022-08-26T04:25:26.392Z,18.52
2022-08-26T04:27:55.429Z,18.52
2022-08-26T04:30:24.257Z,18.54
2022-08-26T04:32:58.258Z,18.55
2022-08-26T04:35:27.039Z,18.57
2022-08-26T04:37:56.051Z,18.49
2022-08-26T04:40:27.564Z,18.43
2022-08-26T04:42:56.785Z,18.40
2022-08-26T04:45:26.443Z,18.35
2022-08-26T04:47:57.358Z,18.32
2022-08-26T04:50:26.934Z,18.32
2022-08-26T04:52:56.363Z,18.24
2022-08-26T04:55:38.122Z,18.26
2022-08-26T04:58:10.116Z,18.25
2022-08-26T05:00:39.941Z,18.19
2022-08-26T05:03:10.846Z,18.29
2022-08-26T05:05:41.447Z,18.30
2022-08-26T05:08:11.181Z,18.42
2022-08-26T05:10:42.473Z,18.38
2022-08-26T05:13:15.372Z,18.32
2022-08-26T05:15:45.364Z,18.31
2022-08-26T05:18:16.713Z,18.32
2022-08-26T05:20:48.832Z,18.35
2022-08-26T05:23:18.274Z,18.31
2022-08-26T05:25:48.586Z,18.34
2022-08-26T05:28:19.341Z,18.41
2022-08-26T05:30:49.068Z,18.51
2022-08-26T05:33:20.098Z,18.54
2022-08-26T05:35:49.185Z,18.59
2022-08-26T05:38:22.404Z,18.56
2022-08-26T05:40:53.115Z,18.58
2022-08-26T05:43:22.142Z,18.67
2022-08-26T05:45:51.870Z,18.69
2022-08-26T05:48:22.523Z,18.75
2022-08-26T05:50:53.894Z,18.75
2022-08-26T05:53:23.972Z,18.76
2022-08-26T05:55:55.439Z,18.74
2022-08-26T05:58:24.986Z,18.76
2022-08-26T06:01:01.393Z,18.87
2022-08-26T06:03:34.463Z,18.87
2022-08-26T06:06:05.714Z,18.93
2022-08-26T06:08:36.205Z,18.91
2022-08-26T06:11:07.283Z,19.01
2022-08-26T06:13:37.000Z,19.03
2022-08-26T06:16:08.994Z,19.05
2022-08-26T06:18:41.671Z,19.13
2022-08-26T06:21:16.018Z,19.15
2022-08-26T06:24:04.453Z,19.17
2022-08-26T06:26:34.329Z,19.24
2022-08-26T06:29:06.927Z,19.29
2022-08-26T06:31:38.174Z,19.37
2022-08-26T06:34:11.071Z,19.31
2022-08-26T06:36:43.840Z,19.42
2022-08-26T06:39:15.302Z,19.46
2022-08-26T06:41:44.997Z,19.55
2022-08-26T06:44:16.337Z,19.61
2022-08-26T06:46:45.733Z,19.67
2022-08-26T06:49:17.362Z,19.76
2022-08-26T06:51:46.186Z,19.86
2022-08-26T06:54:18.235Z,19.91
2022-08-26T06:56:47.900Z,19.85
2022-08-26T06:59:17.178Z,19.95
2022-08-26T07:01:46.929Z,20.02
2022-08-26T07:04:22.045Z,20.08
2022-08-26T07:06:53.750Z,20.11
2022-08-26T07:09:25.349Z,20.20
2022-08-26T07:11:56.299Z,20.22
2022-08-26T07:14:26.170Z,20.30
2022-08-26T07:16:55.573Z,20.39
2022-08-26T07:19:30.146Z,20.51
2022-08-26T07:22:05.554Z,20.57
2022-08-26T07:24:35.922Z,20.69
2022-08-26T07:27:08.776Z,20.76
2022-08-26T07:29:38.924Z,20.90
2022-08-26T07:32:08.431Z,21.12
2022-08-26T07:34:39.753Z,21.32
2022-08-26T07:37:10.706Z,21.54
2022-08-26T07:39:41.791Z,21.67
2022-08-26T07:42:14.322Z,21.97
2022-08-26T07:44:44.756Z,22.10
2022-08-26T07:47:25.004Z,22.18
2022-08-26T07:49:57.736Z,22.43
2022-08-26T07:52:28.189Z,22.75
2022-08-26T07:54:58.115Z,22.88
2022-08-26T07:57:27.516Z,23.08
2022-08-26T07:59:56.795Z,23.37
2022-08-26T08:02:26.853Z,23.63
2022-08-26T08:04:57.882Z,23.78
2022-08-26T08:07:44.350Z,24.02
2022-08-26T08:10:15.411Z,24.18
2022-08-26T08:12:44.642Z,24.32
2022-08-26T08:15:13.907Z,24.38
2022-08-26T08:17:45.954Z,24.38
2022-08-26T08:20:16.095Z,24.43
2022-08-26T08:22:44.929Z,24.40
2022-08-26T08:25:16.052Z,24.36
2022-08-26T08:27:46.163Z,24.41
2022-08-26T08:30:20.817Z,24.52
2022-08-26T08:32:51.526Z,24.64
2022-08-26T08:35:22.716Z,24.66
2022-08-26T08:37:54.392Z,24.60
2022-08-26T08:40:25.806Z,24.50
2022-08-26T08:42:59.146Z,24.82
2022-08-26T08:45:35.883Z,24.91
2022-08-26T08:48:08.407Z,24.96
2022-08-26T08:50:45.727Z,25.13
2022-08-26T08:53:18.117Z,25.24
2022-08-26T08:56:00.450Z,25.45
2022-08-26T08:58:40.602Z,25.59
2022-08-26T09:01:13.304Z,25.62
2022-08-26T09:03:48.576Z,25.79
2022-08-26T09:06:19.133Z,25.79
2022-08-26T09:08:50.485Z,25.81
2022-08-26T09:11:20.461Z,25.95
2022-08-26T09:13:52.515Z,25.99
2022-08-26T09:16:25.900Z,26.12
2022-08-26T09:19:04.928Z,26.28
2022-08-26T09:21:35.443Z,26.19
2022-08-26T09:24:04.745Z,26.22
2022-08-26T09:26:45.224Z,26.32
2022-08-26T09:31:51.406Z,26.68
2022-08-26T09:34:22.160Z,26.72
2022-08-26T09:36:54.469Z,26.92
2022-08-26T09:39:33.991Z,27.15
2022-08-26T09:42:11.896Z,27.31
2022-08-26T09:45:03.725Z,27.55
2022-08-26T09:47:35.791Z,27.87
2022-08-26T09:50:14.052Z,28.07
2022-08-26T09:52:44.558Z,28.24
2022-08-26T09:55:16.713Z,28.42
2022-08-26T09:57:47.468Z,28.65
2022-08-26T10:00:32.087Z,28.89
2022-08-26T10:03:03.586Z,28.87
2022-08-26T10:05:56.038Z,29.08
2022-08-26T10:08:31.376Z,29.21
2022-08-26T10:11:02.122Z,29.47
2022-08-26T10:13:35.402Z,29.70
2022-08-26T10:16:10.716Z,29.85
2022-08-26T10:18:42.227Z,29.95
2022-08-26T10:21:17.817Z,29.99
2022-08-26T10:23:50.252Z,30.09
2022-08-26T10:26:24.345Z,30.29
2022-08-26T10:28:56.900Z,30.19
2022-08-26T10:31:30.339Z,30.22
2022-08-26T10:34:07.368Z,30.51
2022-08-26T10:37:15.828Z,30.70
2022-08-26T10:39:49.170Z,30.78
2022-08-26T10:42:24.572Z,30.74
2022-08-26T10:44:58.474Z,30.78
2022-08-26T10:47:33.755Z,30.88
2022-08-26T10:50:04.600Z,31.02
2022-08-26T10:52:45.685Z,31.04
2022-08-26T10:55:19.882Z,31.19
2022-08-26T10:57:56.325Z,31.25
2022-08-26T11:00:48.627Z,31.31
2022-08-26T11:03:29.048Z,31.48
2022-08-26T11:06:16.883Z,31.52
2022-08-26T11:08:50.095Z,31.52
2022-08-26T11:11:51.091Z,31.78
2022-08-26T11:14:41.071Z,31.95
2022-08-26T11:17:57.108Z,32.11
2022-08-26T11:20:35.505Z,32.25
2022-08-26T11:23:38.197Z,32.44
2022-08-26T11:26:35.476Z,32.33
2022-08-26T11:29:12.266Z,32.03
2022-08-26T11:31:56.953Z,31.59
2022-08-26T11:34:55.207Z,31.30
2022-08-26T11:37:33.200Z,30.95
2022-08-26T11:40:04.220Z,30.61
2022-08-26T11:42:42.965Z,30.34
2022-08-26T11:45:20.050Z,30.08
2022-08-26T11:47:49.615Z,29.87
2022-08-26T11:50:21.186Z,29.74
2022-08-26T11:52:55.701Z,29.68
2022-08-26T11:55:24.734Z,29.52
2022-08-26T11:57:55.914Z,29.46
2022-08-26T12:00:33.468Z,29.71
2022-08-26T12:03:08.046Z,29.95
2022-08-26T12:05:43.068Z,30.02
2022-08-26T12:08:15.731Z,30.27
2022-08-26T12:10:44.793Z,30.64
2022-08-26T12:13:22.082Z,30.83
2022-08-26T12:15:56.679Z,30.74
2022-08-26T12:18:29.639Z,30.88
2022-08-26T12:21:05.401Z,30.47
2022-08-26T12:23:43.249Z,30.28
2022-08-26T12:26:23.351Z,30.31
2022-08-26T12:28:57.915Z,30.46
2022-08-26T12:31:31.260Z,30.64
2022-08-26T12:34:01.768Z,30.91
2022-08-26T12:36:33.482Z,31.10
2022-08-26T12:39:10.805Z,31.27
2022-08-26T12:41:48.033Z,31.42
2022-08-26T12:44:42.400Z,31.56
2022-08-26T12:47:39.035Z,31.63
2022-08-26T12:50:18.604Z,31.56
2022-08-26T12:52:57.077Z,31.38
2022-08-26T12:55:27.666Z,30.99
2022-08-26T12:58:20.960Z,30.84
2022-08-26T13:00:51.116Z,30.91
2022-08-26T13:03:45.717Z,31.05
2022-08-26T13:06:27.852Z,30.91
2022-08-26T13:08:58.705Z,30.83
2022-08-26T13:11:30.421Z,30.79
2022-08-26T13:14:00.981Z,30.91
2022-08-26T13:16:31.309Z,30.78
2022-08-26T13:19:03.013Z,30.90
2022-08-26T13:21:37.721Z,30.98
2022-08-26T13:24:08.996Z,30.94
2022-08-26T13:26:37.843Z,30.91
2022-08-26T13:29:10.229Z,30.86
2022-08-26T13:31:41.055Z,30.89
2022-08-26T13:34:12.526Z,30.99
2022-08-26T13:36:42.193Z,31.01
2022-08-26T13:39:11.027Z,30.97
2022-08-26T13:41:39.930Z,30.99
2022-08-26T13:44:08.706Z,30.94
2022-08-26T13:46:37.814Z,30.88
2022-08-26T13:49:06.865Z,30.69
2022-08-26T13:51:37.631Z,30.48
2022-08-26T13:54:07.222Z,30.31
2022-08-26T13:56:37.437Z,30.08
2022-08-26T13:59:07.508Z,29.98
2022-08-26T14:01:39.595Z,29.82
2022-08-26T14:04:08.676Z,29.71
2022-08-26T14:06:38.882Z,29.61
2022-08-26T14:09:11.497Z,29.53
2022-08-26T14:11:55.092Z,29.29
2022-08-26T14:14:25.025Z,29.20
2022-08-26T14:16:59.284Z,29.15
2022-08-26T14:19:30.587Z,29.04
2022-08-26T14:22:01.750Z,28.95
2022-08-26T14:24:30.820Z,28.83
2022-08-26T14:26:59.714Z,28.78
2022-08-26T14:29:28.886Z,28.69
2022-08-26T14:31:58.839Z,28.63
2022-08-26T14:34:27.784Z,28.57
2022-08-26T14:36:56.552Z,28.50
2022-08-26T14:39:26.881Z,28.43
2022-08-26T14:41:56.998Z,28.43
2022-08-26T14:44:27.421Z,28.31
2022-08-26T14:46:56.985Z,28.23
2022-08-26T14:49:27.237Z,28.27
2022-08-26T14:51:56.802Z,28.15
2022-08-26T14:54:26.093Z,28.12
2022-08-26T14:56:58.595Z,28.00
2022-08-26T14:59:29.297Z,28.05
2022-08-26T15:02:00.858Z,27.97
2022-08-26T15:04:30.082Z,27.97
2022-08-26T15:07:00.400Z,28.00
2022-08-26T15:09:32.196Z,27.93
2022-08-26T15:12:01.757Z,27.88
2022-08-26T15:14:32.957Z,27.81
2022-08-26T15:17:02.394Z,27.78
2022-08-26T15:19:31.790Z,27.69
2022-08-26T15:22:00.562Z,27.65
2022-08-26T15:24:31.513Z,27.54
2022-08-26T15:27:00.488Z,27.35
2022-08-26T15:29:31.613Z,27.18
2022-08-26T15:32:05.916Z,27.04
2022-08-26T15:34:34.784Z,26.89
2022-08-26T15:37:03.683Z,26.84
2022-08-26T15:39:34.090Z,26.82
2022-08-26T15:42:03.249Z,26.74
2022-08-26T15:44:34.023Z,26.65
2022-08-26T15:47:02.973Z,26.61
2022-08-26T15:49:31.769Z,26.59
2022-08-26T15:52:00.563Z,26.48
2022-08-26T15:54:29.511Z,26.32
2022-08-26T15:57:02.823Z,26.37
2022-08-26T15:59:32.105Z,26.30
2022-08-26T16:02:01.852Z,26.24
2022-08-26T16:04:36.615Z,26.18
2022-08-26T16:07:05.811Z,26.23
2022-08-26T16:09:34.506Z,26.20
2022-08-26T16:12:05.579Z,26.06
2022-08-26T16:14:34.479Z,26.09
2022-08-26T16:17:03.284Z,25.89
2022-08-26T16:19:32.467Z,25.86
2022-08-26T16:22:01.261Z,25.76
2022-08-26T16:24:30.668Z,25.40
2022-08-26T16:26:59.661Z,25.23
2022-08-26T16:29:31.439Z,24.72
2022-08-26T16:32:00.367Z,24.50
2022-08-26T16:34:29.212Z,24.34
2022-08-26T16:36:58.380Z,24.35
2022-08-26T16:39:27.207Z,24.28
2022-08-26T16:41:56.004Z,24.05
2022-08-26T16:44:25.048Z,24.02
2022-08-26T16:46:59.397Z,23.85
2022-08-26T16:49:28.150Z,23.66
2022-08-26T16:51:56.996Z,23.50
2022-08-26T16:54:27.541Z,23.37
2022-08-26T16:56:56.732Z,23.19
2022-08-26T16:59:25.551Z,22.75
2022-08-26T17:01:54.356Z,22.45
2022-08-26T17:04:24.602Z,22.51
2022-08-26T17:06:53.712Z,22.52
2022-08-26T17:09:23.297Z,22.54
2022-08-26T17:11:52.257Z,22.50
2022-08-26T17:14:21.050Z,22.51
2022-08-26T17:16:51.344Z,22.34
2022-08-26T17:19:21.347Z,22.21
2022-08-26T17:21:51.685Z,21.95
2022-08-26T17:24:20.633Z,21.78
2022-08-26T17:26:50.045Z,21.84
2022-08-26T17:29:22.462Z,21.72
2022-08-26T17:31:51.313Z,21.69
2022-08-26T17:34:20.533Z,21.72
2022-08-26T17:36:51.194Z,21.71
2022-08-26T17:39:20.373Z,21.68
2022-08-26T17:41:49.434Z,21.67
2022-08-26T17:44:18.747Z,21.63
2022-08-26T17:46:47.501Z,21.55
2022-08-26T17:49:16.294Z,21.46
2022-08-26T17:51:45.239Z,21.42
2022-08-26T17:54:15.705Z,21.38
2022-08-26T17:56:44.369Z,21.32
2022-08-26T17:59:13.146Z,21.25
2022-08-26T18:01:41.966Z,21.09
2022-08-26T18:04:11.862Z,21.03
2022-08-26T18:06:43.592Z,20.93
2022-08-26T18:09:12.849Z,20.76
2022-08-26T18:11:43.140Z,20.78
2022-08-26T18:14:12.709Z,20.63
2022-08-26T18:16:42.003Z,20.61
2022-08-26T18:19:11.599Z,20.60
2022-08-26T18:21:40.594Z,20.50
2022-08-26T18:24:13.794Z,20.47
2022-08-26T18:26:48.803Z,20.47
2022-08-26T18:29:19.573Z,20.51
2022-08-26T18:31:49.557Z,20.46
2022-08-26T18:34:21.606Z,20.45
2022-08-26T18:36:53.789Z,20.43
2022-08-26T18:39:23.620Z,20.49
2022-08-26T18:41:54.092Z,20.50
2022-08-26T18:44:23.933Z,20.41
2022-08-26T18:46:52.920Z,20.34
2022-08-26T18:49:22.295Z,20.32
2022-08-26T18:51:54.204Z,20.30
2022-08-26T18:54:23.171Z,20.24
2022-08-26T18:56:54.064Z,20.23
2022-08-26T18:59:30.535Z,20.31
2022-08-26T19:01:59.630Z,20.29
2022-08-26T19:04:28.855Z,20.32
2022-08-26T19:06:57.945Z,20.34
2022-08-26T19:09:27.273Z,20.33
2022-08-26T19:11:57.714Z,20.30
2022-08-26T19:14:30.086Z,20.29
2022-08-26T19:17:00.578Z,20.23
2022-08-26T19:19:29.583Z,20.29
2022-08-26T19:21:58.679Z,20.28
2022-08-26T19:24:29.465Z,20.23
2022-08-26T19:27:01.662Z,20.30
2022-08-26T19:29:32.605Z,20.30
2022-08-26T19:32:01.988Z,20.23
2022-08-26T19:34:31.133Z,20.25
2022-08-26T19:37:00.396Z,20.25
2022-08-26T19:39:29.465Z,20.24
2022-08-26T19:42:00.355Z,20.24
2022-08-26T19:44:46.728Z,20.21
2022-08-26T19:47:15.909Z,20.17
2022-08-26T19:49:45.734Z,20.13
2022-08-26T19:52:14.565Z,20.16
2022-08-26T19:54:44.552Z,20.11
2022-08-26T19:57:14.750Z,20.08
2022-08-26T19:59:44.421Z,20.06
2022-08-26T20:02:13.386Z,20.06
2022-08-26T20:04:42.914Z,20.01
2022-08-26T20:07:15.323Z,20.07
2022-08-26T20:09:48.256Z,20.02
2022-08-26T20:12:18.685Z,20.03
2022-08-26T20:14:48.063Z,20.02
2022-08-26T20:17:17.172Z,20.03
2022-08-26T20:20:03.707Z,20.00
2022-08-26T20:22:33.818Z,20.06
2022-08-26T20:25:03.283Z,20.00
2022-08-26T20:27:38.337Z,19.95
2022-08-26T20:30:09.855Z,19.99
2022-08-26T20:32:39.696Z,19.95
2022-08-26T20:35:11.553Z,19.92
2022-08-26T20:37:41.726Z,19.89
2022-08-26T20:40:18.827Z,19.81
2022-08-26T20:42:49.050Z,19.80
2022-08-26T20:45:17.864Z,19.85
2022-08-26T20:47:46.696Z,19.77
2022-08-26T20:50:15.465Z,19.73
2022-08-26T20:52:44.285Z,19.71
2022-08-26T20:55:13.203Z,19.70
2022-08-26T20:57:43.143Z,19.68
2022-08-26T21:00:16.301Z,19.71
2022-08-26T21:02:46.233Z,19.70
2022-08-26T21:05:17.921Z,19.72
2022-08-26T21:07:47.003Z,19.63
2022-08-26T21:10:16.712Z,19.59
2022-08-26T21:12:45.583Z,19.61
2022-08-26T21:15:16.447Z,19.62
2022-08-26T21:17:45.395Z,19.65
2022-08-26T21:20:14.352Z,19.67
2022-08-26T21:22:44.648Z,19.70
2022-08-26T21:25:13.406Z,19.68
2022-08-26T21:27:42.297Z,19.66
2022-08-26T21:30:14.421Z,19.61
2022-08-26T21:32:44.657Z,19.56
2022-08-26T21:35:13.612Z,19.62
2022-08-26T21:37:42.394Z,19.54
2022-08-26T21:40:12.099Z,19.53
2022-08-26T21:42:41.110Z,19.49
2022-08-26T21:45:10.868Z,19.43
2022-08-26T21:47:40.545Z,19.47
2022-08-26T21:50:11.196Z,19.38
2022-08-26T21:52:40.238Z,19.37
2022-08-26T21:55:11.676Z,19.37
2022-08-26T21:57:40.817Z,19.36
2022-08-26T22:00:13.055Z,19.31
2022-08-26T22:02:41.908Z,19.33
2022-08-26T22:05:12.365Z,19.37
2022-08-26T22:07:41.309Z,19.36
2022-08-26T22:10:10.426Z,19.35
2022-08-26T22:12:39.584Z,19.38
2022-08-26T22:15:09.891Z,19.35
2022-08-26T22:17:39.192Z,19.35
2022-08-26T22:20:16.514Z,19.35
2022-08-26T22:22:47.059Z,19.29
2022-08-26T22:25:15.828Z,19.24
2022-08-26T22:27:44.538Z,19.23
2022-08-26T22:30:13.980Z,19.23
2022-08-26T22:32:43.892Z,19.24
2022-08-26T22:35:29.149Z,19.23
2022-08-26T22:38:00.439Z,19.30
2022-08-26T22:40:29.405Z,19.26
2022-08-26T22:43:00.165Z,19.28
2022-08-26T22:45:31.255Z,19.24
2022-08-26T22:48:00.181Z,19.28
2022-08-26T22:50:29.507Z,19.28
2022-08-26T22:52:59.618Z,19.33
2022-08-26T22:55:28.380Z,19.27
2022-08-26T22:57:57.119Z,19.32
2022-08-26T23:00:32.193Z,19.33
2022-08-26T23:03:01.953Z,19.33
2022-08-26T23:05:31.184Z,19.29
2022-08-26T23:08:01.368Z,19.33
2022-08-26T23:10:30.233Z,19.39
2022-08-26T23:12:59.017Z,19.36
2022-08-26T23:15:27.812Z,19.36
2022-08-26T23:17:58.928Z,19.36
2022-08-26T23:20:38.373Z,19.28
2022-08-26T23:23:09.401Z,19.41
2022-08-26T23:25:38.180Z,19.39
2022-08-26T23:28:10.184Z,19.45
2022-08-26T23:30:38.986Z,19.41
2022-08-26T23:33:07.789Z,19.43
2022-08-26T23:35:35.574Z,19.45
2022-08-26T23:38:05.478Z,19.54
2022-08-26T23:40:36.933Z,19.54
2022-08-26T23:43:07.973Z,19.53
2022-08-26T23:45:36.910Z,19.47
2022-08-26T23:48:06.851Z,19.54
2022-08-26T23:50:53.139Z,19.53
2022-08-26T23:53:23.460Z,19.48
2022-08-26T23:55:54.085Z,19.47
2022-08-26T23:58:22.955Z,19.44
